Pagrindinis puslapis
METAR-TAF:

METAR-TAF

Oro uostai :

Adijamanas, Turkija

platuma: 37-43-54N, ilguma: 38-28-08E, Aukštis: 675 m

Dabartinis oras

Ataskaita buvo paskelbta 5 valandos ir 41 minutes, ne 12:50 UTC
Vėjas 12 kt iš Šiaurės Rytų
Temperatūra 33°C
Drėgmė 23%
Slėgis 1007 hPa
Matomumas 10 km arba daugiau
Išsisklaidę debesys ne aukštis 4000 ft

METAR: LTCP 151250Z 04012KT 9999 SCT040 33/09 Q1007

Laikas: 21:31 (18:31 UTC)

Prognozė

Ataskaita buvo paskelbta 4 valandos ir 51 minutes, ne 13:40 UTC
Prognozė galioja nuo 15 metu 15 UTC su 15 metu 24 UTC
Vėjas 15 kt iš Šiaurės Rytų
Matomumas 10 km arba daugiau
nėra debesų žemiau 1500 m ir nėra kamuolinių lietaus debesų

TAF: LTCP 151340Z 1515/1524 05015KT CAVOK

Orai ataskaitas ir orų prognozės (METAR, TAF).

turimą stotys yra geltonos ir raudonos taškus žemėlapyje.

Perkelti pele per norėdami pamatyti stoties vardą.

Tada spustelėkite, norėdami matyti oro stebėjimo ir prognozės.

Norėdami pakeisti žemėlapį: spustelėkite ant žalios mygtukų su juodo kryžiaus žemyn,; žalią mygtuką su brūkšneliu, jei norite nutolinti; arba žalių rodyklių gretimoms žemėlapius.


METAR-TAF: